Time;durP1;ratioP1;P1;durP2;ratioP2;P2;SDS_P1;SDS_P2;PMS_P1;PMS_P2;Temp;Humidity;BMP_temperature;BMP_pressure;BME280_temperature;BME280_humidity;BME280_pressure;Samples;Min_cycle;Max_cycle;Signal;HPM_P1;HPM_P2
2022/09/27 00:01:31;;;;;;;21.58;18.33;;;18.10;99.90;;;;;;4590794;19;20491;-37
2022/09/27 00:03:02;;;;;;;20.83;18.52;;;18.10;99.90;;;;;;4591874;19;20026;-39
2022/09/27 00:04:33;;;;;;;20.92;18.70;;;18.10;99.90;;;;;;4591712;19;20014;-39
2022/09/27 00:06:06;;;;;;;21.05;18.58;;;18.10;99.90;;;;;;4592376;19;20370;-38
2022/09/27 00:07:37;;;;;;;19.95;16.95;;;18.10;99.90;;;;;;4592053;19;20013;-36
2022/09/27 00:09:09;;;;;;;20.17;17.20;;;18.10;99.90;;;;;;4591011;19;20010;-42
2022/09/27 00:10:40;;;;;;;20.48;16.65;;;18.10;99.90;;;;;;4591728;19;20022;-36
2022/09/27 00:12:11;;;;;;;19.77;17.55;;;18.10;99.90;;;;;;4591793;19;20066;-39
2022/09/27 00:13:42;;;;;;;21.83;18.08;;;18.10;99.90;;;;;;4591875;19;20356;-38
2022/09/27 00:15:13;;;;;;;21.95;18.23;;;18.10;99.90;;;;;;4592482;19;20010;-41
2022/09/27 00:16:44;;;;;;;21.02;17.85;;;18.10;99.90;;;;;;4591790;19;20483;-37
2022/09/27 00:18:15;;;;;;;18.70;16.40;;;18.10;99.90;;;;;;4591644;19;20459;-36
2022/09/27 00:19:46;;;;;;;19.13;16.90;;;18.10;99.90;;;;;;4592076;19;20006;-39
2022/09/27 00:21:18;;;;;;;20.65;18.45;;;18.10;99.90;;;;;;4592134;19;20014;-40
2022/09/27 00:22:49;;;;;;;19.13;16.85;;;18.10;99.90;;;;;;4592028;19;20471;-38
2022/09/27 00:24:21;;;;;;;19.50;17.40;;;18.10;99.90;;;;;;4591793;19;20058;-36
2022/09/27 00:25:56;;;;;;;20.35;16.95;;;18.10;99.90;;;;;;4591070;19;20011;-41
2022/09/27 00:27:28;;;;;;;19.95;17.73;;;18.10;99.90;;;;;;4592070;19;20019;-36
2022/09/27 00:28:59;;;;;;;21.88;18.52;;;18.10;99.90;;;;;;4590890;19;20070;-38
2022/09/27 00:30:30;;;;;;;20.13;17.42;;;18.10;99.90;;;;;;4591359;19;20014;-37
2022/09/27 00:32:01;;;;;;;22.05;18.05;;;18.10;99.90;;;;;;4591837;19;20007;-36
2022/09/27 00:33:32;;;;;;;21.15;18.52;;;18.10;99.90;;;;;;4592135;19;20014;-36
2022/09/27 00:35:04;;;;;;;21.38;18.13;;;18.10;99.90;;;;;;4589014;19;20014;-39
2022/09/27 00:36:35;;;;;;;23.40;20.13;;;18.10;99.90;;;;;;4591161;19;20066;-36
2022/09/27 00:38:06;;;;;;;22.83;20.00;;;18.10;99.90;;;;;;4591913;19;20066;-35
2022/09/27 00:39:40;;;;;;;21.02;18.75;;;18.10;99.90;;;;;;4591055;19;20014;-38
2022/09/27 00:41:15;;;;;;;24.30;19.55;;;18.10;99.90;;;;;;4589733;19;20364;-36
2022/09/27 00:42:46;;;;;;;27.08;21.75;;;18.10;99.90;;;;;;4591130;19;20014;-37
2022/09/27 00:44:27;;;;;;;27.17;22.60;;;18.10;99.90;;;;;;4591751;19;20011;-39
2022/09/27 00:46:01;;;;;;;30.02;23.80;;;18.10;99.90;;;;;;4591363;19;20076;-39
2022/09/27 00:47:33;;;;;;;;;;;18.10;99.90;;;;;;4590746;19;20018;-40
2022/09/27 00:49:13;;;;;;;27.23;22.65;;;18.10;99.90;;;;;;4590713;19;20270;-36
2022/09/27 00:50:45;;;;;;;25.58;21.02;;;18.00;99.90;;;;;;4588263;19;20662;-37
2022/09/27 00:52:28;;;;;;;28.00;21.77;;;18.10;99.90;;;;;;4591048;19;20030;-37
2022/09/27 00:53:59;;;;;;;29.23;22.77;;;18.10;99.90;;;;;;4590566;19;20021;-40
2022/09/27 00:55:33;;;;;;;25.88;20.15;;;18.10;99.90;;;;;;4591222;19;20062;-41
2022/09/27 00:57:04;;;;;;;23.92;20.08;;;18.10;99.90;;;;;;4589581;19;20017;-40
2022/09/27 00:58:39;;;;;;;24.33;21.10;;;18.10;99.90;;;;;;4591064;19;20465;-42
2022/09/27 01:00:11;;;;;;;22.20;19.20;;;18.10;99.90;;;;;;4589716;19;20086;-35
2022/09/27 01:01:43;;;;;;;20.60;18.33;;;18.00;99.90;;;;;;4589914;19;20027;-40
2022/09/27 01:03:21;;;;;;;22.60;18.60;;;18.00;99.90;;;;;;4590548;19;20011;-38
2022/09/27 01:04:52;;;;;;;22.55;18.23;;;18.00;99.90;;;;;;4589577;19;20018;-37
2022/09/27 01:06:23;;;;;;;21.60;19.38;;;18.10;99.90;;;;;;4588191;19;20031;-36
2022/09/27 01:07:59;;;;;;;20.27;17.63;;;18.00;99.90;;;;;;4590129;19;20018;-40
2022/09/27 01:09:30;;;;;;;21.50;17.35;;;18.10;99.90;;;;;;4590508;19;20041;-36
2022/09/27 01:11:15;;;;;;;19.65;17.55;;;18.00;99.90;;;;;;4589815;19;20096;-40
2022/09/27 01:13:27;;;;;;;20.58;17.95;;;18.00;99.90;;;;;;4590437;19;20010;-37
2022/09/27 01:15:11;;;;;;;19.88;17.50;;;18.00;99.90;;;;;;4589304;19;20010;-39
2022/09/27 01:16:43;;;;;;;19.40;17.30;;;18.10;99.90;;;;;;4589848;19;20037;-39
2022/09/27 01:18:27;;;;;;;18.05;16.25;;;18.00;99.90;;;;;;4590904;19;20027;-41
2022/09/27 01:20:16;;;;;;;18.90;17.00;;;18.00;99.90;;;;;;4589496;19;20032;-39
2022/09/27 01:22:10;;;;;;;17.83;15.93;;;18.00;99.90;;;;;;4589252;19;20413;-40
2022/09/27 01:24:05;;;;;;;17.35;15.65;;;18.00;99.90;;;;;;4589807;19;20344;-36
2022/09/27 01:25:55;;;;;;;18.92;16.40;;;18.10;99.90;;;;;;4589671;19;20042;-34
2022/09/27 01:27:39;;;;;;;17.92;16.13;;;18.10;99.90;;;;;;4590682;19;20353;-43
2022/09/27 01:29:32;;;;;;;19.83;17.73;;;18.00;99.90;;;;;;4590260;19;20043;-40
2022/09/27 01:31:09;;;;;;;19.67;17.58;;;18.00;99.90;;;;;;4589080;19;20007;-37
2022/09/27 01:32:46;;;;;;;19.85;17.75;;;18.00;99.90;;;;;;4589377;19;20010;-40
2022/09/27 01:34:37;;;;;;;18.58;16.75;;;18.10;99.90;;;;;;4589400;19;20021;-40
2022/09/27 01:36:19;;;;;;;20.20;17.92;;;18.00;99.90;;;;;;4588633;19;20490;-38
2022/09/27 01:38:17;;;;;;;21.38;18.42;;;18.00;99.90;;;;;;4588389;19;20018;-39
2022/09/27 01:40:01;;;;;;;24.05;20.30;;;18.00;99.90;;;;;;4587440;19;20010;-38
2022/09/27 01:41:51;;;;;;;27.88;22.45;;;18.00;99.90;;;;;;4587804;19;20500;-41
2022/09/27 01:43:29;;;;;;;27.45;22.15;;;18.00;99.90;;;;;;4587925;19;20011;-38
2022/09/27 01:45:16;;;;;;;26.60;21.40;;;18.00;99.90;;;;;;4587941;19;20042;-44
2022/09/27 01:46:54;;;;;;;24.77;21.65;;;18.00;99.90;;;;;;4589565;19;20015;-36
2022/09/27 01:48:31;;;;;;;21.98;19.55;;;18.00;99.90;;;;;;4592686;19;20018;-37
2022/09/27 01:50:14;;;;;;;23.15;19.60;;;18.00;99.90;;;;;;4591910;19;20026;-37
2022/09/27 01:51:51;;;;;;;19.98;17.85;;;18.00;99.90;;;;;;4592594;19;20022;-41
2022/09/27 01:53:31;;;;;;;20.85;18.65;;;18.00;99.90;;;;;;4592492;19;20025;-39
2022/09/27 01:55:05;;;;;;;17.90;16.00;;;18.00;99.90;;;;;;4592726;19;20011;-34
2022/09/27 01:56:51;;;;;;;17.85;16.05;;;18.00;99.90;;;;;;4591938;19;20490;-38
2022/09/27 01:58:53;;;;;;;18.58;16.67;;;18.00;99.90;;;;;;4592037;19;20035;-42
2022/09/27 02:00:24;;;;;;;16.88;15.18;;;18.00;99.90;;;;;;4591552;19;20043;-38
2022/09/27 02:01:58;;;;;;;17.15;15.45;;;18.00;99.90;;;;;;4591590;19;20010;-39
2022/09/27 02:03:38;;;;;;;15.65;14.05;;;18.00;99.90;;;;;;4592535;19;20034;-41
2022/09/27 02:05:10;;;;;;;16.77;15.02;;;18.00;99.90;;;;;;4592171;19;20035;-38
2022/09/27 02:06:44;;;;;;;16.88;15.20;;;18.00;99.90;;;;;;4592063;19;20481;-38
2022/09/27 02:08:26;;;;;;;15.93;14.00;;;18.00;99.90;;;;;;4592477;19;20003;-42
2022/09/27 02:10:13;;;;;;;16.05;14.38;;;18.00;99.90;;;;;;4591965;19;20070;-39
2022/09/27 02:11:50;;;;;;;15.38;13.77;;;18.00;99.90;;;;;;4592338;19;20018;-37
2022/09/27 02:13:25;;;;;;;15.32;13.82;;;18.00;99.90;;;;;;4592576;19;20010;-40
2022/09/27 02:15:09;;;;;;;16.00;14.40;;;18.00;99.90;;;;;;4592070;19;20034;-43
2022/09/27 02:16:50;;;;;;;14.77;13.35;;;18.00;99.90;;;;;;4591623;19;20464;-39
2022/09/27 02:18:51;;;;;;;15.50;14.00;;;18.00;99.90;;;;;;4592185;19;20494;-41
2022/09/27 02:20:40;;;;;;;14.27;12.95;;;18.00;99.90;;;;;;4591950;19;20507;-37
2022/09/27 02:22:32;;;;;;;13.93;12.63;;;18.00;99.90;;;;;;4592132;19;20010;-41
2022/09/27 02:24:04;;;;;;;15.60;14.10;;;18.00;99.90;;;;;;4591772;19;20082;-38
2022/09/27 02:25:42;;;;;;;15.20;13.77;;;18.00;99.90;;;;;;4590986;19;20011;-38
2022/09/27 02:27:20;;;;;;;15.43;13.93;;;18.00;99.90;;;;;;4591754;19;20018;-43
2022/09/27 02:28:55;;;;;;;14.13;12.82;;;18.00;99.90;;;;;;4592162;19;20045;-37
2022/09/27 02:30:26;;;;;;;14.13;12.73;;;18.00;99.90;;;;;;4591459;19;20460;-38
2022/09/27 02:31:57;;;;;;;14.48;13.13;;;18.00;99.90;;;;;;4591991;19;20483;-39
2022/09/27 02:33:37;;;;;;;14.68;13.18;;;18.00;99.90;;;;;;4591502;19;20011;-39
2022/09/27 02:35:20;;;;;;;14.48;13.02;;;18.00;99.90;;;;;;4591911;19;20070;-40
2022/09/27 02:36:52;;;;;;;15.23;13.82;;;18.00;99.90;;;;;;4590837;19;20015;-36
2022/09/27 02:38:23;;;;;;;15.05;13.57;;;18.00;99.90;;;;;;4591932;19;20012;-38
2022/09/27 02:39:54;;;;;;;14.18;12.85;;;18.00;99.90;;;;;;4590413;19;20408;-41
2022/09/27 02:41:26;;;;;;;15.02;13.52;;;18.00;99.90;;;;;;4591522;19;20074;-39
2022/09/27 02:42:57;;;;;;;14.23;12.80;;;18.00;99.90;;;;;;4591941;19;20002;-36
2022/09/27 02:44:28;;;;;;;14.23;12.90;;;18.00;99.90;;;;;;4591285;19;20014;-37
2022/09/27 02:46:07;;;;;;;14.48;13.05;;;18.00;99.90;;;;;;4591466;19;20530;-37
2022/09/27 02:47:46;;;;;;;14.82;13.32;;;18.00;99.90;;;;;;4591013;19;20015;-40
2022/09/27 02:49:28;;;;;;;15.98;14.38;;;18.00;99.90;;;;;;4591444;19;20052;-40
2022/09/27 02:51:09;;;;;;;15.90;14.25;;;18.00;99.90;;;;;;4591619;19;20014;-41
2022/09/27 02:52:58;;;;;;;14.63;13.10;;;18.00;99.90;;;;;;4591136;19;20401;-43
2022/09/27 02:54:41;;;;;;;15.00;13.50;;;18.00;99.90;;;;;;4591224;19;20018;-39
2022/09/27 02:56:19;;;;;;;15.13;13.52;;;18.00;99.90;;;;;;4591183;19;20015;-35
2022/09/27 02:57:59;;;;;;;13.93;12.52;;;18.00;99.90;;;;;;4590146;19;20014;-43
2022/09/27 03:00:08;;;;;;;14.32;12.90;;;18.00;99.90;;;;;;4592815;19;19998;-37
2022/09/27 03:01:59;;;;;;;13.57;12.27;;;18.00;99.90;;;;;;4590983;19;20034;-37
2022/09/27 03:03:42;;;;;;;14.07;12.77;;;18.00;99.90;;;;;;4591470;19;19999;-39
2022/09/27 03:05:17;;;;;;;13.80;12.40;;;18.00;99.90;;;;;;4591112;19;20023;-41
2022/09/27 03:06:48;;;;;;;13.63;12.23;;;18.00;99.90;;;;;;4591980;19;20011;-38
2022/09/27 03:08:19;;;;;;;13.38;12.07;;;18.00;99.90;;;;;;4591244;19;20108;-37
2022/09/27 03:09:52;;;;;;;13.25;11.95;;;18.00;99.90;;;;;;4591159;19;20014;-39
2022/09/27 03:11:23;;;;;;;13.52;12.20;;;18.00;99.90;;;;;;4590712;19;20010;-36
2022/09/27 03:12:56;;;;;;;;;;;18.00;99.90;;;;;;4591440;19;20010;-39
2022/09/27 03:14:27;;;;;;;13.23;11.93;;;18.00;99.90;;;;;;4590865;19;19923;-41
2022/09/27 03:15:58;;;;;;;13.52;12.18;;;18.00;99.90;;;;;;4590708;19;20491;-41
2022/09/27 03:17:29;;;;;;;14.23;12.75;;;18.00;99.90;;;;;;4589666;19;20011;-37
2022/09/27 03:19:00;;;;;;;13.95;12.55;;;18.00;99.90;;;;;;4590559;19;20038;-37
2022/09/27 03:20:31;;;;;;;13.55;12.15;;;18.00;99.90;;;;;;4590449;19;20490;-37
2022/09/27 03:22:02;;;;;;;14.40;12.98;;;18.00;99.90;;;;;;4590930;19;20014;-38
2022/09/27 03:23:34;;;;;;;14.80;13.30;;;18.00;99.90;;;;;;4592431;19;20011;-37
2022/09/27 03:25:06;;;;;;;14.18;12.77;;;18.00;99.90;;;;;;4590714;19;20018;-37
2022/09/27 03:26:37;;;;;;;13.50;12.20;;;18.00;99.90;;;;;;4591130;19;20018;-37
2022/09/27 03:28:08;;;;;;;13.77;12.48;;;18.00;99.90;;;;;;4592664;19;20014;-37
2022/09/27 03:29:39;;;;;;;13.52;12.32;;;18.00;99.90;;;;;;4592047;19;20015;-38
2022/09/27 03:31:10;;;;;;;14.00;12.65;;;18.00;99.90;;;;;;4592803;19;20010;-37
2022/09/27 03:32:43;;;;;;;13.60;12.35;;;18.00;99.90;;;;;;4592423;19;20011;-38
2022/09/27 03:34:14;;;;;;;12.88;11.65;;;18.00;99.90;;;;;;4592594;19;20610;-41
2022/09/27 03:35:46;;;;;;;13.35;12.05;;;18.00;99.90;;;;;;4592431;19;20017;-40
2022/09/27 03:37:17;;;;;;;14.27;12.88;;;18.00;99.90;;;;;;4592300;19;20019;-37
2022/09/27 03:38:49;;;;;;;14.90;13.48;;;18.00;99.90;;;;;;4594470;19;20021;-38
2022/09/27 03:40:20;;;;;;;13.98;12.68;;;18.00;99.90;;;;;;4593039;19;20018;-43
2022/09/27 03:41:52;;;;;;;14.18;12.80;;;18.00;99.90;;;;;;4594393;19;20010;-37
2022/09/27 03:43:23;;;;;;;14.48;12.98;;;18.00;99.90;;;;;;4594615;19;20038;-42
2022/09/27 03:44:54;;;;;;;14.38;12.95;;;18.00;99.90;;;;;;4593491;19;20487;-37
2022/09/27 03:46:25;;;;;;;15.07;13.68;;;18.00;99.90;;;;;;4593882;19;20014;-34
2022/09/27 03:47:56;;;;;;;;;;;18.00;99.90;;;;;;4592111;19;20014;-38
2022/09/27 03:49:28;;;;;;;15.70;14.00;;;18.00;99.90;;;;;;4591043;19;20380;-36
2022/09/27 03:50:59;;;;;;;15.40;13.85;;;18.10;99.90;;;;;;4592039;19;20380;-37
2022/09/27 03:52:30;;;;;;;15.85;14.25;;;18.10;99.90;;;;;;4592302;19;20507;-39
2022/09/27 03:54:01;;;;;;;16.83;15.10;;;18.20;99.90;;;;;;4592239;19;20482;-36
2022/09/27 03:55:32;;;;;;;15.13;13.68;;;18.30;99.90;;;;;;4592452;19;20025;-41
2022/09/27 03:57:04;;;;;;;18.30;16.58;;;18.40;99.90;;;;;;4592268;19;20011;-38
2022/09/27 03:58:35;;;;;;;;;;;17.80;99.90;;;;;;4594836;19;20387;-41
2022/09/27 04:00:07;;;;;;;20.10;18.10;;;16.20;99.90;;;;;;4592494;19;19937;-34
2022/09/27 04:01:38;;;;;;;20.70;18.70;;;15.40;99.90;;;;;;4592608;19;20538;-39
2022/09/27 04:03:10;;;;;;;22.73;20.33;;;15.00;99.90;;;;;;4593112;19;20015;-37
2022/09/27 04:04:42;;;;;;;23.77;21.27;;;14.80;99.90;;;;;;4591942;19;20035;-36
2022/09/27 04:06:13;;;;;;;25.65;22.60;;;14.70;99.90;;;;;;4591661;19;20018;-37
2022/09/27 04:07:46;;;;;;;23.50;21.05;;;14.70;99.90;;;;;;4592334;19;20040;-37
2022/09/27 04:09:17;;;;;;;23.33;20.97;;;14.70;99.90;;;;;;4589885;19;20100;-38
2022/09/27 04:10:48;;;;;;;23.00;20.67;;;14.70;99.90;;;;;;4592038;19;20479;-41
2022/09/27 04:12:20;;;;;;;22.55;20.15;;;14.60;99.90;;;;;;4589601;19;20002;-39
2022/09/27 04:13:51;;;;;;;25.00;22.45;;;14.50;99.90;;;;;;4592749;19;20030;-34
2022/09/27 04:15:22;;;;;;;24.60;21.67;;;14.50;99.90;;;;;;4591565;19;20024;-34
2022/09/27 04:16:53;;;;;;;26.23;23.52;;;14.50;99.90;;;;;;4591688;19;20033;-39
2022/09/27 04:18:25;;;;;;;23.25;20.85;;;14.50;99.90;;;;;;4591351;19;20022;-36
2022/09/27 04:19:56;;;;;;;25.15;22.58;;;14.50;99.90;;;;;;4591741;19;20011;-42
2022/09/27 04:21:28;;;;;;;23.70;21.30;;;14.50;99.90;;;;;;4590657;19;20074;-37
2022/09/27 04:22:58;;;;;;;;;;;14.50;99.90;;;;;;4592484;19;20014;-39
2022/09/27 04:24:30;;;;;;;24.70;22.13;;;14.50;99.90;;;;;;4591383;19;20336;-42
2022/09/27 04:26:02;;;;;;;22.85;20.55;;;14.50;99.90;;;;;;4591553;19;20014;-37
2022/09/27 04:27:33;;;;;;;24.20;21.80;;;14.40;99.90;;;;;;4591249;19;20010;-38
2022/09/27 04:29:04;;;;;;;25.13;22.58;;;14.40;99.90;;;;;;4591657;19;19998;-42
2022/09/27 04:30:35;;;;;;;24.88;22.27;;;14.40;99.90;;;;;;4591784;19;20017;-35
2022/09/27 04:32:06;;;;;;;25.63;23.02;;;14.40;99.90;;;;;;4587093;19;20021;-36
2022/09/27 04:33:37;;;;;;;23.27;20.88;;;14.40;99.90;;;;;;4590724;19;20509;-41
2022/09/27 04:36:59;;;;;;;21.97;19.77;;;14.40;99.90;;;;;;4591826;19;20010;-38
2022/09/27 04:38:31;;;;;;;22.30;20.10;;;14.40;99.90;;;;;;4591090;19;20014;-36
2022/09/27 04:40:04;;;;;;;24.73;22.10;;;14.40;99.90;;;;;;4589832;19;20029;-38
2022/09/27 04:41:35;;;;;;;23.13;20.77;;;14.40;99.90;;;;;;4590008;19;20022;-39
2022/09/27 04:43:07;;;;;;;;;;;14.40;99.90;;;;;;4592882;19;20010;-40
2022/09/27 04:44:38;;;;;;;23.60;21.20;;;14.30;99.90;;;;;;4590210;19;19974;-36
2022/09/27 04:46:09;;;;;;;22.92;20.52;;;14.30;99.90;;;;;;4590953;19;20026;-34
2022/09/27 04:47:45;;;;;;;22.67;20.27;;;14.30;99.90;;;;;;4591886;19;20006;-34
2022/09/27 04:49:17;;;;;;;23.47;20.97;;;14.30;99.90;;;;;;4590350;19;20010;-36
2022/09/27 04:51:01;;;;;;;20.88;18.67;;;14.30;99.90;;;;;;4590690;19;20018;-37
2022/09/27 04:52:33;;;;;;;18.30;16.40;;;14.30;99.90;;;;;;4591062;19;20019;-39
2022/09/27 04:54:04;;;;;;;17.95;15.80;;;14.60;99.90;;;;;;4590689;19;20010;-41
2022/09/27 04:55:35;;;;;;;17.83;15.93;;;15.10;99.90;;;;;;4591052;19;20019;-37
2022/09/27 04:57:11;;;;;;;18.52;16.33;;;15.50;99.90;;;;;;4589039;19;20025;-37
2022/09/27 04:58:42;;;;;;;18.00;16.10;;;15.90;99.90;;;;;;4590615;19;20047;-35
2022/09/27 05:00:14;;;;;;;18.33;16.42;;;16.10;99.90;;;;;;4591200;19;20006;-39
2022/09/27 05:01:45;;;;;;;17.52;15.63;;;16.30;99.90;;;;;;4590384;19;20480;-38
2022/09/27 05:03:18;;;;;;;17.95;16.00;;;16.50;99.90;;;;;;4590863;19;20007;-42
2022/09/27 05:04:49;;;;;;;16.50;14.70;;;16.60;99.90;;;;;;4591293;19;20022;-39
2022/09/27 05:06:20;;;;;;;15.65;14.05;;;16.70;99.90;;;;;;4591163;19;20021;-38
2022/09/27 05:07:51;;;;;;;17.20;15.02;;;16.80;99.90;;;;;;4590045;19;20018;-39
2022/09/27 05:09:23;;;;;;;15.48;13.63;;;16.90;99.90;;;;;;4590464;19;20014;-37
2022/09/27 05:10:54;;;;;;;17.30;15.27;;;17.00;99.90;;;;;;4589021;19;20013;-35
2022/09/27 05:12:32;;;;;;;18.67;15.45;;;17.10;99.90;;;;;;4590078;19;20015;-37
2022/09/27 05:14:29;;;;;;;17.55;14.88;;;17.10;99.90;;;;;;4590022;19;20082;-40
2022/09/27 05:16:28;;;;;;;16.73;14.93;;;17.20;99.90;;;;;;4589231;19;20007;-41
2022/09/27 05:18:10;;;;;;;18.33;16.30;;;17.20;99.90;;;;;;4588291;19;20370;-36
2022/09/27 05:19:53;;;;;;;18.90;16.55;;;17.30;99.90;;;;;;4589184;19;20018;-37
2022/09/27 05:22:09;;;;;;;20.20;16.80;;;17.40;99.90;;;;;;4589856;19;20021;-37
2022/09/27 05:23:40;;;;;;;19.50;16.02;;;17.40;99.90;;;;;;4588133;19;20354;-39
2022/09/27 05:25:12;;;;;;;19.58;16.40;;;17.40;99.90;;;;;;4588165;19;20512;-42
2022/09/27 05:26:44;;;;;;;19.05;15.52;;;17.50;99.90;;;;;;4587777;19;20003;-39
2022/09/27 05:28:15;;;;;;;18.05;15.77;;;17.50;99.90;;;;;;4587858;19;20436;-38
2022/09/27 05:29:47;;;;;;;17.10;15.25;;;17.50;99.90;;;;;;4587942;19;20127;-39
2022/09/27 05:31:18;;;;;;;;;;;17.50;99.90;;;;;;4588934;19;20015;-39
2022/09/27 05:32:49;;;;;;;16.30;14.60;;;17.50;99.90;;;;;;4587438;19;19978;-38
2022/09/27 05:34:20;;;;;;;17.80;15.32;;;17.60;99.90;;;;;;4587191;19;20027;-35
2022/09/27 05:35:54;;;;;;;16.92;15.02;;;17.60;99.90;;;;;;4587831;19;20029;-39
2022/09/27 05:37:26;;;;;;;15.65;13.98;;;17.60;99.90;;;;;;4586825;19;20023;-41
2022/09/27 05:38:57;;;;;;;15.07;13.45;;;17.60;99.90;;;;;;4587575;19;20015;-38
2022/09/27 05:40:28;;;;;;;15.23;13.60;;;17.60;99.90;;;;;;4586122;19;20078;-41
2022/09/27 05:41:59;;;;;;;15.00;13.23;;;17.70;99.90;;;;;;4587964;19;20006;-36
2022/09/27 05:43:31;;;;;;;14.77;13.18;;;17.70;99.90;;;;;;4587483;19;20006;-38
2022/09/27 05:45:02;;;;;;;15.80;14.10;;;17.70;99.90;;;;;;4587703;19;20029;-43
2022/09/27 05:46:33;;;;;;;16.98;14.20;;;17.70;99.90;;;;;;4588060;19;20015;-40
2022/09/27 05:48:04;;;;;;;16.90;14.85;;;17.70;99.90;;;;;;4586855;19;20045;-39
2022/09/27 05:49:36;;;;;;;16.17;13.93;;;17.70;99.90;;;;;;4586917;19;20108;-38
2022/09/27 05:51:07;;;;;;;16.20;14.23;;;17.70;99.90;;;;;;4587174;19;20340;-40
2022/09/27 05:52:38;;;;;;;16.33;14.63;;;17.70;99.90;;;;;;4587307;19;20356;-38
2022/09/27 05:54:09;;;;;;;16.75;14.90;;;17.70;99.90;;;;;;4588212;19;20106;-37
2022/09/27 05:55:41;;;;;;;17.17;15.30;;;17.70;99.90;;;;;;4587475;19;20018;-39
2022/09/27 05:57:12;;;;;;;15.80;13.68;;;17.70;99.90;;;;;;4586607;19;20030;-39
2022/09/27 05:58:43;;;;;;;16.63;14.80;;;17.80;99.90;;;;;;4587668;19;20011;-38
2022/09/27 06:00:14;;;;;;;17.77;15.18;;;17.70;99.90;;;;;;4587099;19;20015;-35
2022/09/27 06:01:46;;;;;;;14.85;13.35;;;17.80;99.90;;;;;;4589053;19;20018;-41
2022/09/27 06:03:17;;;;;;;;;;;17.80;99.90;;;;;;4590618;19;20011;-38
2022/09/27 06:04:49;;;;;;;15.25;13.70;;;17.80;99.90;;;;;;4588371;19;20312;-38
2022/09/27 06:06:21;;;;;;;;;;;17.80;99.90;;;;;;4588599;19;20472;-39
2022/09/27 06:08:01;;;;;;;15.88;14.27;;;17.90;99.90;;;;;;4588373;19;20258;-36
2022/09/27 06:09:32;;;;;;;14.50;12.73;;;17.90;99.90;;;;;;4587058;19;20010;-38
2022/09/27 06:11:05;;;;;;;16.35;14.18;;;17.90;99.90;;;;;;4587506;19;20040;-37
2022/09/27 06:12:37;;;;;;;15.68;14.10;;;17.90;99.90;;;;;;4587095;19;20015;-36
2022/09/27 06:14:08;;;;;;;15.50;14.00;;;17.90;99.90;;;;;;4587301;19;20047;-36
2022/09/27 06:15:40;;;;;;;14.38;12.98;;;17.90;99.90;;;;;;4587635;19;20014;-37
2022/09/27 06:17:12;;;;;;;13.65;12.25;;;17.90;99.90;;;;;;4585856;19;20014;-38
2022/09/27 06:18:43;;;;;;;14.68;13.15;;;17.90;99.90;;;;;;4589637;19;20020;-38
2022/09/27 06:20:16;;;;;;;13.38;12.07;;;17.90;99.90;;;;;;4589793;19;20496;-37
2022/09/27 06:21:50;;;;;;;13.40;12.02;;;17.90;99.90;;;;;;4589146;19;20006;-37
2022/09/27 06:23:21;;;;;;;14.43;12.93;;;17.90;99.90;;;;;;4588916;19;20014;-39
2022/09/27 06:24:52;;;;;;;;;;;18.00;99.90;;;;;;4589564;19;20010;-37
2022/09/27 06:26:26;;;;;;;13.13;11.68;;;18.00;99.90;;;;;;4588298;19;19926;-35
2022/09/27 06:28:00;;;;;;;14.65;13.02;;;18.00;99.90;;;;;;4586700;19;20022;-40
2022/09/27 06:29:34;;;;;;;13.68;12.35;;;18.00;99.90;;;;;;4587141;19;20014;-36
2022/09/27 06:31:06;;;;;;;13.95;12.45;;;18.00;99.90;;;;;;4586270;19;20479;-35
2022/09/27 06:32:39;;;;;;;13.95;12.52;;;18.00;99.90;;;;;;4588312;19;20022;-36
2022/09/27 06:34:10;;;;;;;13.10;11.80;;;18.00;99.90;;;;;;4594051;19;20024;-36
2022/09/27 06:35:41;;;;;;;13.93;12.43;;;18.00;99.90;;;;;;4594230;19;20002;-37
2022/09/27 06:37:12;;;;;;;13.65;11.93;;;18.00;99.90;;;;;;4595378;19;20043;-39
2022/09/27 06:38:47;;;;;;;13.32;11.90;;;18.00;99.90;;;;;;4592596;19;20015;-39
2022/09/27 06:40:18;;;;;;;12.25;10.95;;;18.00;99.90;;;;;;4592417;19;20033;-39
2022/09/27 06:41:56;;;;;;;13.02;11.55;;;18.10;99.90;;;;;;4594367;19;20018;-36
2022/09/27 06:43:28;;;;;;;11.75;10.48;;;18.20;99.90;;;;;;4593580;19;20021;-38
2022/09/27 06:44:59;;;;;;;12.10;10.88;;;18.20;99.90;;;;;;4592540;19;20017;-42
2022/09/27 06:46:30;;;;;;;12.52;11.05;;;18.20;99.90;;;;;;4592278;19;20014;-39
2022/09/27 06:48:02;;;;;;;13.98;11.55;;;18.10;99.90;;;;;;4593076;19;20462;-34
2022/09/27 06:49:33;;;;;;;12.65;11.35;;;18.10;99.90;;;;;;4593745;19;20026;-42
2022/09/27 06:51:06;;;;;;;12.40;11.10;;;18.10;99.90;;;;;;4593716;19;20011;-37
2022/09/27 06:52:37;;;;;;;12.77;11.32;;;18.10;99.90;;;;;;4592942;19;20015;-38
2022/09/27 06:54:08;;;;;;;13.88;12.13;;;18.10;99.90;;;;;;4592028;19;20033;-34
2022/09/27 06:55:40;;;;;;;12.30;11.10;;;18.10;99.90;;;;;;4593126;19;20094;-37
2022/09/27 07:00:22;;;;;;;12.75;11.45;;;18.10;99.90;;;;;;4592796;19;20036;-42
2022/09/27 07:00:52;;;;;;;13.07;11.50;;;18.10;99.90;;;;;;4593473;19;20037;-37
2022/09/27 07:02:26;;;;;;;12.52;10.93;;;18.00;99.90;;;;;;4592037;19;20037;-35
2022/09/27 07:03:57;;;;;;;13.98;10.82;;;18.00;99.90;;;;;;4593281;19;20015;-38
2022/09/27 07:05:29;;;;;;;11.52;10.32;;;18.10;99.90;;;;;;4594305;19;20010;-37
2022/09/27 07:07:00;;;;;;;12.77;11.13;;;18.10;99.90;;;;;;4593624;19;20010;-36
2022/09/27 07:08:32;;;;;;;12.75;11.25;;;18.10;99.90;;;;;;4593202;19;20019;-38
2022/09/27 07:10:04;;;;;;;12.52;10.68;;;18.10;99.90;;;;;;4591772;19;20376;-38
2022/09/27 07:11:35;;;;;;;12.02;10.73;;;18.10;99.90;;;;;;4593410;19;20014;-40
2022/09/27 07:13:07;;;;;;;12.95;11.52;;;18.10;99.90;;;;;;4593277;19;20017;-40
2022/09/27 07:14:39;;;;;;;11.82;10.63;;;18.10;99.90;;;;;;4592942;19;20037;-36
2022/09/27 07:16:12;;;;;;;13.55;11.70;;;18.10;99.90;;;;;;4593356;19;20014;-42
2022/09/27 07:17:43;;;;;;;13.10;11.43;;;18.10;99.90;;;;;;4592040;19;20361;-39
2022/09/27 07:19:14;;;;;;;12.40;10.90;;;18.10;99.90;;;;;;4591526;19;20527;-34
2022/09/27 07:20:47;;;;;;;12.48;11.05;;;18.10;99.90;;;;;;4592040;19;20013;-36
2022/09/27 07:22:19;;;;;;;12.25;10.90;;;18.10;99.90;;;;;;4592419;19;20043;-37
2022/09/27 07:23:50;;;;;;;14.40;11.68;;;18.10;99.90;;;;;;4593716;19;20059;-37
2022/09/27 07:25:22;;;;;;;14.02;11.70;;;18.10;99.90;;;;;;4592186;19;20011;-36
2022/09/27 07:26:54;;;;;;;12.85;11.38;;;18.10;99.90;;;;;;4591234;19;20045;-40
2022/09/27 07:28:27;;;;;;;12.95;10.95;;;18.10;99.90;;;;;;4591840;19;20006;-36
2022/09/27 07:29:58;;;;;;;12.60;11.15;;;18.10;99.90;;;;;;4591484;19;20038;-37
2022/09/27 07:31:29;;;;;;;12.65;11.23;;;18.10;99.90;;;;;;4591391;19;20463;-35
2022/09/27 07:33:03;;;;;;;;;;;18.10;99.90;;;;;;4593040;19;20404;-35
2022/09/27 07:34:35;;;;;;;13.70;11.43;;;18.10;99.90;;;;;;4591944;19;19919;-36
2022/09/27 07:36:08;;;;;;;13.02;11.63;;;18.10;99.90;;;;;;4590735;19;20086;-34
2022/09/27 07:37:39;;;;;;;12.73;10.85;;;18.10;99.90;;;;;;4589061;19;20430;-40
2022/09/27 07:39:10;;;;;;;13.02;10.88;;;18.10;99.90;;;;;;4591401;19;20015;-39
2022/09/27 07:40:41;;;;;;;13.10;11.27;;;18.10;99.90;;;;;;4590913;19;20044;-34
2022/09/27 07:42:12;;;;;;;13.35;11.65;;;18.10;99.90;;;;;;4591675;19;20007;-42
2022/09/27 07:43:44;;;;;;;13.90;11.43;;;18.20;99.90;;;;;;4590595;19;20015;-39
2022/09/27 07:45:16;;;;;;;13.00;11.60;;;18.20;99.90;;;;;;4590776;19;20333;-38
2022/09/27 07:46:47;;;;;;;;;;;18.20;99.90;;;;;;4593156;19;20047;-41
2022/09/27 07:48:18;;;;;;;14.70;12.60;;;18.30;99.90;;;;;;4592219;19;19915;-37
2022/09/27 07:49:51;;;;;;;13.68;12.27;;;18.30;99.90;;;;;;4592473;19;20007;-35
2022/09/27 07:51:24;;;;;;;13.75;12.05;;;18.40;99.90;;;;;;4592005;19;20021;-35
2022/09/27 07:52:55;;;;;;;13.95;12.55;;;18.50;99.90;;;;;;4593010;19;20091;-36
2022/09/27 07:54:26;;;;;;;14.20;12.70;;;18.50;99.90;;;;;;4590866;19;20011;-38
2022/09/27 07:55:58;;;;;;;12.70;11.40;;;18.60;99.90;;;;;;4591867;19;20014;-36
2022/09/27 07:57:29;;;;;;;13.57;12.18;;;18.60;99.90;;;;;;4590491;19;20023;-38
2022/09/27 07:59:00;;;;;;;14.60;12.60;;;18.70;99.90;;;;;;4591534;19;20010;-40
2022/09/27 08:00:32;;;;;;;12.77;11.13;;;18.70;99.90;;;;;;4590722;19;20411;-36
2022/09/27 08:02:03;;;;;;;13.10;11.70;;;18.70;99.90;;;;;;4591113;19;20021;-37
2022/09/27 08:03:35;;;;;;;13.45;12.00;;;18.70;99.90;;;;;;4592045;19;20015;-41
2022/09/27 08:05:06;;;;;;;;;;;18.70;99.90;;;;;;4591854;19;20022;-40
2022/09/27 08:06:37;;;;;;;12.07;10.77;;;18.60;99.90;;;;;;4591766;19;19915;-39